createdAt,value
2019-03-11T00:00:07.166Z,-4.53
2019-03-11T00:01:17.083Z,-4.55
2019-03-11T00:02:27.002Z,-4.53
2019-03-11T00:03:36.918Z,-4.58
2019-03-11T00:04:46.834Z,-4.63
2019-03-11T00:05:56.909Z,-4.74
2019-03-11T00:07:06.837Z,-4.62
2019-03-11T00:08:16.752Z,-4.65
2019-03-11T00:09:26.668Z,-4.7
2019-03-11T00:10:36.324Z,-4.71
2019-03-11T00:11:46.361Z,-4.8
2019-03-11T00:12:56.269Z,-4.81
2019-03-11T00:14:06.180Z,-4.81
2019-03-11T00:15:16.097Z,-4.83
2019-03-11T00:16:25.754Z,-4.77
2019-03-11T00:17:35.772Z,-4.83
2019-03-11T00:18:45.692Z,-4.84
2019-03-11T00:19:55.613Z,-4.8
2019-03-11T00:21:05.554Z,-4.65
2019-03-11T00:22:15.473Z,-4.7
2019-03-11T00:23:25.479Z,-4.65
2019-03-11T00:24:35.397Z,-4.67
2019-03-11T00:25:45.306Z,-4.67
2019-03-11T00:26:55.223Z,-4.63
2019-03-11T00:28:05.157Z,-4.55
2019-03-11T00:29:15.116Z,-4.61
2019-03-11T00:30:25.030Z,-4.58
2019-03-11T00:31:34.941Z,-4.61
2019-03-11T00:32:44.917Z,-4.74
2019-03-11T00:33:54.834Z,-4.7
2019-03-11T00:35:04.794Z,-4.62
2019-03-11T00:36:14.709Z,-4.77
2019-03-11T00:37:24.639Z,-4.58
2019-03-11T00:38:34.550Z,-4.55
2019-03-11T00:39:44.468Z,-4.56
2019-03-11T00:40:54.478Z,-4.61
2019-03-11T00:42:04.391Z,-4.67
2019-03-11T00:43:14.299Z,-4.7
2019-03-11T00:44:24.218Z,-4.69
2019-03-11T00:45:34.137Z,-4.76
2019-03-11T00:46:44.061Z,-4.83
2019-03-11T00:48:04.390Z,-4.87
2019-03-11T00:49:14.305Z,-4.81
2019-03-11T00:50:24.213Z,-4.9
2019-03-11T00:51:34.120Z,-4.95
2019-03-11T00:52:44.478Z,-4.97
2019-03-11T00:53:54.604Z,-5
2019-03-11T00:55:04.520Z,-5
2019-03-11T00:56:14.512Z,-5.06
2019-03-11T00:57:24.169Z,-5.19
2019-03-11T00:58:34.188Z,-5.23
2019-03-11T00:59:44.125Z,-5.17
2019-03-11T01:00:54.036Z,-5.2
2019-03-11T01:02:03.963Z,-5.23
2019-03-11T01:03:13.622Z,-5.17
2019-03-11T01:04:23.632Z,-5.17
2019-03-11T01:05:33.543Z,-5.16
2019-03-11T01:06:43.456Z,-5.09
2019-03-11T01:07:53.367Z,-5.09
2019-03-11T01:09:03.292Z,-5.12
2019-03-11T01:10:13.321Z,-5.12
2019-03-11T01:11:23.241Z,-5.16
2019-03-11T01:12:33.153Z,-5.13
2019-03-11T01:13:43.062Z,-5.12
2019-03-11T01:14:52.741Z,-5.13
2019-03-11T01:16:02.708Z,-5.17
2019-03-11T01:17:12.628Z,-5.23
2019-03-11T01:18:22.540Z,-5.23
2019-03-11T01:19:32.482Z,-5.12
2019-03-11T01:20:42.397Z,-5.19
2019-03-11T01:21:52.356Z,-5.17
2019-03-11T01:23:02.273Z,-5.2
2019-03-11T01:24:12.188Z,-5.17
2019-03-11T01:25:22.135Z,-5.25
2019-03-11T01:26:32.051Z,-5.12
2019-03-11T01:27:42.063Z,-5.28
2019-03-11T01:28:51.981Z,-5.32
2019-03-11T01:30:01.926Z,-5.32
2019-03-11T01:31:11.837Z,-5.3
2019-03-11T01:32:21.753Z,-5.5
2019-03-11T01:33:31.721Z,-5.53
2019-03-11T01:34:41.700Z,-5.5
2019-03-11T01:35:51.618Z,-5.52
2019-03-11T01:37:01.534Z,-5.63
2019-03-11T01:38:11.452Z,-5.58
2019-03-11T01:39:21.471Z,-5.58
2019-03-11T01:40:31.391Z,-5.58
2019-03-11T01:41:41.307Z,-5.71
2019-03-11T01:42:54.095Z,-5.76
2019-03-11T01:44:04.011Z,-5.73
2019-03-11T01:45:13.976Z,-5.82
2019-03-11T01:46:23.910Z,-5.78
2019-03-11T01:47:33.879Z,-5.78
2019-03-11T01:48:43.787Z,-5.82
2019-03-11T01:49:53.704Z,-5.81
2019-03-11T01:51:03.666Z,-5.95
2019-03-11T01:52:13.578Z,-5.91
2019-03-11T01:53:23.516Z,-5.84
2019-03-11T01:54:33.429Z,-5.89
2019-03-11T01:55:43.342Z,-5.87
2019-03-11T01:56:53.351Z,-5.89
2019-03-11T01:58:03.266Z,-5.88
2019-03-11T01:59:13.185Z,-5.97
2019-03-11T02:00:23.094Z,-5.97
2019-03-11T02:01:33.006Z,-5.94
2019-03-11T02:02:42.966Z,-5.92
2019-03-11T02:03:52.892Z,-5.92
2019-03-11T02:05:02.808Z,-5.95
2019-03-11T02:06:12.717Z,-5.95
2019-03-11T02:07:22.716Z,-5.94
2019-03-11T02:08:32.726Z,-5.95
2019-03-11T02:09:42.642Z,-5.91
2019-03-11T02:10:52.556Z,-5.92
2019-03-11T02:12:02.473Z,-5.89
2019-03-11T02:13:12.381Z,-5.97
2019-03-11T02:14:22.394Z,-5.95
2019-03-11T02:15:32.306Z,-5.92
2019-03-11T02:16:42.221Z,-5.94
2019-03-11T02:17:52.131Z,-5.88
2019-03-11T02:19:02.042Z,-5.95
2019-03-11T02:20:12.052Z,-5.94
2019-03-11T02:21:21.965Z,-5.91
2019-03-11T02:22:31.886Z,-5.92
2019-03-11T02:23:41.870Z,-5.88
2019-03-11T02:24:51.808Z,-5.94
2019-03-11T02:26:01.766Z,-5.91
2019-03-11T02:27:11.687Z,-5.95
2019-03-11T02:28:21.604Z,-6.02
2019-03-11T02:29:31.529Z,-6.02
2019-03-11T02:30:41.441Z,-6.06
2019-03-11T02:31:51.434Z,-6.09
2019-03-11T02:33:01.387Z,-6.15
2019-03-11T02:34:11.325Z,-6.07
2019-03-11T02:35:21.247Z,-6.16
2019-03-11T02:36:31.183Z,-6.26
2019-03-11T02:37:41.160Z,-6.27
2019-03-11T02:38:51.084Z,-6.27
2019-03-11T02:40:01.031Z,-6.26
2019-03-11T02:41:11.044Z,-6.3
2019-03-11T02:42:20.976Z,-6.33
2019-03-11T02:43:31.009Z,-6.3
2019-03-11T02:44:41.049Z,-6.23
2019-03-11T02:45:51.012Z,-6.26
2019-03-11T02:47:00.946Z,-6.31
2019-03-11T02:48:10.873Z,-6.31
2019-03-11T02:49:20.911Z,-6.33
2019-03-11T02:50:30.891Z,-6.31
2019-03-11T02:51:40.846Z,-6.36
2019-03-11T02:52:50.775Z,-6.36
2019-03-11T02:54:00.705Z,-6.45
2019-03-11T02:55:10.810Z,-6.42
2019-03-11T02:56:20.895Z,-6.39
2019-03-11T02:57:30.833Z,-6.56
2019-03-11T02:58:40.792Z,-6.51
2019-03-11T02:59:50.727Z,-6.56
2019-03-11T03:01:00.773Z,-6.49
2019-03-11T03:02:10.434Z,-6.58
2019-03-11T03:03:20.362Z,-6.51
2019-03-11T03:04:30.050Z,-6.56
2019-03-11T03:05:39.743Z,-6.7
2019-03-11T03:06:49.753Z,-6.64
2019-03-11T03:07:59.687Z,-6.7
2019-03-11T03:09:09.625Z,-6.68
2019-03-11T03:10:19.574Z,-6.73
2019-03-11T03:11:29.506Z,-6.7
2019-03-11T03:12:39.497Z,-6.85
2019-03-11T03:13:49.498Z,-6.79
2019-03-11T03:14:59.442Z,-6.78
2019-03-11T03:16:09.379Z,-6.89
2019-03-11T03:17:19.304Z,-6.96
2019-03-11T03:18:29.330Z,-6.86
2019-03-11T03:19:39.375Z,-6.95
2019-03-11T03:20:49.397Z,-6.99
2019-03-11T03:21:59.365Z,-6.96
2019-03-11T03:23:09.287Z,-6.89
2019-03-11T03:24:19.074Z,-6.88
2019-03-11T03:25:39.181Z,-6.89
2019-03-11T03:26:49.151Z,-6.97
2019-03-11T03:27:59.649Z,-7.02
2019-03-11T03:29:10.206Z,-7.03
2019-03-11T03:30:20.162Z,-6.99
2019-03-11T03:31:30.192Z,-7.07
2019-03-11T03:32:40.327Z,-7.05
2019-03-11T03:33:50.277Z,-7.09
2019-03-11T03:35:00.765Z,-7.06
2019-03-11T03:36:10.833Z,-7.09
2019-03-11T03:37:20.510Z,-7.1
2019-03-11T03:38:35.971Z,-7.06
2019-03-11T03:39:45.915Z,-7.15
2019-03-11T03:40:55.893Z,-7.17
2019-03-11T03:42:05.829Z,-7.13
2019-03-11T03:43:18.637Z,-7.21
2019-03-11T03:44:28.368Z,-7.23
2019-03-11T03:45:38.051Z,-7.24
2019-03-11T03:46:48.030Z,-7.25
2019-03-11T03:47:57.961Z,-7.3
2019-03-11T03:49:07.985Z,-7.3
2019-03-11T03:50:17.920Z,-7.32
2019-03-11T03:51:27.849Z,-7.34
2019-03-11T03:52:37.818Z,-7.32
2019-03-11T03:53:47.739Z,-7.35
2019-03-11T03:54:57.681Z,-7.36
2019-03-11T03:56:07.610Z,-7.34
2019-03-11T03:57:17.284Z,-7.36
2019-03-11T03:58:27.295Z,-7.34
2019-03-11T03:59:37.262Z,-7.45
2019-03-11T04:00:47.186Z,-7.39
2019-03-11T04:01:56.864Z,-7.45
2019-03-11T04:03:06.796Z,-7.42
2019-03-11T04:04:16.536Z,-7.48
2019-03-11T04:05:26.481Z,-7.48
2019-03-11T04:06:36.411Z,-7.48
2019-03-11T04:07:46.336Z,-7.57
2019-03-11T04:08:56.273Z,-7.6
2019-03-11T04:10:06.326Z,-7.67
2019-03-11T04:11:16.266Z,-7.74
2019-03-11T04:12:26.195Z,-7.8
2019-03-11T04:13:36.121Z,-7.84
2019-03-11T04:14:46.079Z,-7.77
2019-03-11T04:15:56.008Z,-7.83
2019-03-11T04:17:05.944Z,-7.94
2019-03-11T04:18:15.676Z,-7.92
2019-03-11T04:19:28.991Z,-7.89
2019-03-11T04:20:39.254Z,-7.88
2019-03-11T04:21:49.032Z,-7.96
2019-03-11T04:22:58.954Z,-7.94
2019-03-11T04:24:09.012Z,-7.89
2019-03-11T04:25:18.953Z,-7.94
2019-03-11T04:26:28.900Z,-7.91
2019-03-11T04:27:38.905Z,-7.95
2019-03-11T04:28:48.840Z,-7.99
2019-03-11T04:29:58.750Z,-8.1
2019-03-11T04:31:08.671Z,-8.08
2019-03-11T04:32:18.602Z,-8.1
2019-03-11T04:33:28.675Z,-8.17
2019-03-11T04:34:41.060Z,-8.1
2019-03-11T04:35:50.995Z,-8.08
2019-03-11T04:37:00.932Z,-8.1
2019-03-11T04:38:10.840Z,-8.08
2019-03-11T04:39:20.802Z,-8.11
2019-03-11T04:40:30.714Z,-8.02
2019-03-11T04:41:40.624Z,-8.05
2019-03-11T04:42:50.558Z,-8.07
2019-03-11T04:44:00.484Z,-7.96
2019-03-11T04:45:12.220Z,-7.99
2019-03-11T04:46:22.144Z,-8.07
2019-03-11T04:47:32.063Z,-8.1
2019-03-11T04:48:41.969Z,-8.07
2019-03-11T04:49:51.876Z,-8.17
2019-03-11T04:51:01.885Z,-8.18
2019-03-11T04:52:11.543Z,-8.18
2019-03-11T04:53:21.466Z,-8.2
2019-03-11T04:54:31.370Z,-8.18
2019-03-11T04:55:41.274Z,-8.26
2019-03-11T04:56:51.036Z,-8.34
2019-03-11T04:58:01.022Z,-8.32
2019-03-11T04:59:10.927Z,-8.35
2019-03-11T05:00:20.834Z,-8.36
2019-03-11T05:01:30.748Z,-8.47
2019-03-11T05:02:40.667Z,-8.54
2019-03-11T05:03:51.192Z,-8.56
2019-03-11T05:05:01.110Z,-8.6
2019-03-11T05:06:11.018Z,-8.71
2019-03-11T05:07:20.932Z,-8.65
2019-03-11T05:08:30.886Z,-8.6
2019-03-11T05:09:40.791Z,-8.7
2019-03-11T05:10:50.698Z,-8.73
2019-03-11T05:12:00.619Z,-8.68
2019-03-11T05:13:10.529Z,-8.68
2019-03-11T05:14:20.534Z,-8.74
2019-03-11T05:15:30.442Z,-8.85
2019-03-11T05:16:40.356Z,-8.89
2019-03-11T05:17:53.262Z,-8.92
2019-03-11T05:19:03.199Z,-8.91
2019-03-11T05:20:13.224Z,-8.94
2019-03-11T05:21:23.133Z,-8.85
2019-03-11T05:22:33.040Z,-9.02
2019-03-11T05:23:42.962Z,-8.96
2019-03-11T05:24:52.866Z,-8.91
2019-03-11T05:26:02.829Z,-8.85
2019-03-11T05:27:12.734Z,-8.96
2019-03-11T05:28:22.656Z,-8.82
2019-03-11T05:29:32.315Z,-9.03
2019-03-11T05:30:42.223Z,-9.03
2019-03-11T05:31:52.239Z,-9.04
2019-03-11T05:33:02.220Z,-9.06
2019-03-11T05:34:12.130Z,-9.07
2019-03-11T05:35:23.811Z,-9.04
2019-03-11T05:36:33.728Z,-9.03
2019-03-11T05:37:43.862Z,-9.07
2019-03-11T05:38:53.771Z,-9.07
2019-03-11T05:40:03.687Z,-8.95
2019-03-11T05:41:13.913Z,-8.91
2019-03-11T05:42:23.673Z,-9.02
2019-03-11T05:43:33.689Z,-8.95
2019-03-11T05:44:43.595Z,-8.91
2019-03-11T05:45:53.505Z,-8.98
2019-03-11T05:47:03.430Z,-9.06
2019-03-11T05:48:13.343Z,-8.99
2019-03-11T05:49:23.363Z,-9.02
2019-03-11T05:50:33.269Z,-8.91
2019-03-11T05:51:43.178Z,-9.03
2019-03-11T05:52:53.098Z,-8.96
2019-03-11T05:54:03.039Z,-9.03
2019-03-11T05:55:13.019Z,-9.02
2019-03-11T05:56:22.935Z,-8.96
2019-03-11T05:57:32.905Z,-8.95
2019-03-11T05:58:42.888Z,-8.88
2019-03-11T05:59:52.803Z,-8.95
2019-03-11T06:01:02.763Z,-8.88
2019-03-11T06:02:12.668Z,-8.84
2019-03-11T06:03:22.590Z,-8.96
2019-03-11T06:04:32.501Z,-8.98
2019-03-11T06:05:42.406Z,-8.91
2019-03-11T06:06:52.359Z,-8.85
2019-03-11T06:08:02.014Z,-8.84
2019-03-11T06:09:11.926Z,-8.68
2019-03-11T06:10:21.834Z,-8.88
2019-03-11T06:11:31.738Z,-8.77
2019-03-11T06:12:41.802Z,-8.85
2019-03-11T06:13:51.720Z,-8.89
2019-03-11T06:15:01.633Z,-8.91
2019-03-11T06:16:11.293Z,-9.02
2019-03-11T06:17:20.948Z,-9.09
2019-03-11T06:18:30.958Z,-9.17
2019-03-11T06:19:40.867Z,-9.3
2019-03-11T06:20:50.802Z,-9.28
2019-03-11T06:22:00.713Z,-9.28
2019-03-11T06:23:10.730Z,-9.27
2019-03-11T06:24:20.804Z,-9.3
2019-03-11T06:25:30.791Z,-9.16
2019-03-11T06:26:40.779Z,-9.21
2019-03-11T06:27:50.697Z,-9.12
2019-03-11T06:29:00.608Z,-9.07
2019-03-11T06:30:12.911Z,-9.06
2019-03-11T06:31:22.835Z,-9.03
2019-03-11T06:32:32.754Z,-8.92
2019-03-11T06:33:42.412Z,-9.07
2019-03-11T06:34:52.324Z,-9.03
2019-03-11T06:36:02.286Z,-8.95
2019-03-11T06:37:12.208Z,-8.94
2019-03-11T06:38:22.122Z,-8.86
2019-03-11T06:39:32.030Z,-8.85
2019-03-11T06:40:42.005Z,-8.89
2019-03-11T06:41:53.740Z,-8.7
2019-03-11T06:43:03.401Z,-8.74
2019-03-11T06:44:13.069Z,-8.78
2019-03-11T06:45:22.980Z,-8.77
2019-03-11T06:46:32.888Z,-8.8
2019-03-11T06:47:42.885Z,-8.65
2019-03-11T06:48:52.544Z,-8.7
2019-03-11T06:50:02.693Z,-8.67
2019-03-11T06:51:12.122Z,-8.67
2019-03-11T06:52:21.794Z,-8.65
2019-03-11T06:53:31.856Z,-8.59
2019-03-11T06:54:41.765Z,-8.54
2019-03-11T06:55:51.695Z,-8.46
2019-03-11T06:57:01.616Z,-8.46
2019-03-11T06:58:11.531Z,-8.44
2019-03-11T06:59:21.538Z,-8.34
2019-03-11T07:00:31.522Z,-8.36
2019-03-11T07:01:41.440Z,-8.26
2019-03-11T07:02:51.097Z,-8.23
2019-03-11T07:04:01.010Z,-8.2
2019-03-11T07:05:22.522Z,-8.21
2019-03-11T07:06:32.445Z,-8.17
2019-03-11T07:07:42.354Z,-8.24
2019-03-11T07:08:52.262Z,-8.18
2019-03-11T07:10:01.936Z,-8.2
2019-03-11T07:11:11.920Z,-8.18
2019-03-11T07:12:21.857Z,-8.21
2019-03-11T07:13:31.771Z,-8.2
2019-03-11T07:14:41.688Z,-8.08
2019-03-11T07:15:51.610Z,-8.08
2019-03-11T07:17:02.307Z,-8.08
2019-03-11T07:18:11.963Z,-8.08
2019-03-11T07:19:21.877Z,-8.02
2019-03-11T07:20:31.799Z,-7.98
2019-03-11T07:21:41.721Z,-7.95
2019-03-11T07:22:51.731Z,-7.92
2019-03-11T07:24:01.643Z,-7.83
2019-03-11T07:25:11.553Z,-7.92
2019-03-11T07:26:21.543Z,-7.83
2019-03-11T07:27:32.642Z,-7.89
2019-03-11T07:28:42.688Z,-7.8
2019-03-11T07:29:52.349Z,-7.85
2019-03-11T07:31:02.259Z,-7.85
2019-03-11T07:32:12.165Z,-7.8
2019-03-11T07:33:22.085Z,-7.74
2019-03-11T07:34:32.100Z,-7.74
2019-03-11T07:35:42.010Z,-7.74
2019-03-11T07:36:51.924Z,-7.73
2019-03-11T07:38:01.839Z,-7.59
2019-03-11T07:39:11.311Z,-7.52
2019-03-11T07:40:33.751Z,-7.48
2019-03-11T07:41:43.675Z,-7.5
2019-03-11T07:42:53.597Z,-7.46
2019-03-11T07:44:03.518Z,-7.53
2019-03-11T07:45:13.438Z,-7.41
2019-03-11T07:46:23.448Z,-7.39
2019-03-11T07:47:33.375Z,-7.35
2019-03-11T07:48:43.288Z,-7.24
2019-03-11T07:49:53.202Z,-7.18
2019-03-11T07:51:03.164Z,-7.24
2019-03-11T07:52:12.837Z,-7.1
2019-03-11T07:53:22.756Z,-7.15
2019-03-11T07:54:40.500Z,-7.14
2019-03-11T07:55:50.411Z,-7.09
2019-03-11T07:57:00.445Z,-7.06
2019-03-11T07:58:10.373Z,-6.96
2019-03-11T07:59:20.283Z,-6.96
2019-03-11T08:00:30.200Z,-6.95
2019-03-11T08:01:39.945Z,-6.84
2019-03-11T08:02:50.021Z,-6.88
2019-03-11T08:03:59.932Z,-6.84
2019-03-11T08:05:09.846Z,-6.76
2019-03-11T08:06:23.704Z,-6.79
2019-03-11T08:07:33.614Z,-6.7
2019-03-11T08:08:43.704Z,-6.64
2019-03-11T08:09:53.622Z,-6.66
2019-03-11T08:11:03.528Z,-6.58
2019-03-11T08:12:13.436Z,-6.61
2019-03-11T08:13:23.345Z,-6.56
2019-03-11T08:14:33.355Z,-6.49
2019-03-11T08:15:43.058Z,-6.45
2019-03-11T08:16:52.969Z,-6.33
2019-03-11T08:18:02.886Z,-6.28
2019-03-11T08:19:12.793Z,-6.23
2019-03-11T08:20:22.757Z,-6.13
2019-03-11T08:21:32.672Z,-6.15
2019-03-11T08:22:42.584Z,-6.06
2019-03-11T08:23:52.494Z,-6.02
2019-03-11T08:25:02.418Z,-5.97
2019-03-11T08:26:12.509Z,-5.91
2019-03-11T08:27:22.415Z,-5.92
2019-03-11T08:28:32.328Z,-5.91
2019-03-11T08:29:42.244Z,-5.81
2019-03-11T08:30:52.158Z,-5.74
2019-03-11T08:32:02.073Z,-5.66
2019-03-11T08:33:11.993Z,-5.59
2019-03-11T08:34:21.913Z,-5.53
2019-03-11T08:35:31.827Z,-5.48
2019-03-11T08:36:41.761Z,-5.45
2019-03-11T08:37:51.427Z,-5.52
2019-03-11T08:39:01.350Z,-5.5
2019-03-11T08:40:11.290Z,-5.45
2019-03-11T08:41:21.207Z,-5.31
2019-03-11T08:42:31.121Z,-5.13
2019-03-11T08:43:41.151Z,-5.1
2019-03-11T08:44:50.837Z,-5
2019-03-11T08:46:00.783Z,-4.87
2019-03-11T08:47:10.713Z,-4.8
2019-03-11T08:48:20.626Z,-4.55
2019-03-11T08:49:30.536Z,-4.37
2019-03-11T08:50:40.476Z,-4.3
2019-03-11T08:51:50.140Z,-4.2
2019-03-11T08:53:00.061Z,-4.17
2019-03-11T08:54:09.976Z,-4.04
2019-03-11T08:55:19.993Z,-3.96
2019-03-11T08:56:29.910Z,-3.94
2019-03-11T08:57:42.559Z,-3.99
2019-03-11T08:58:52.474Z,-3.96
2019-03-11T09:00:02.388Z,-3.9
2019-03-11T09:01:12.076Z,-4.08
2019-03-11T09:02:22.003Z,-4.19
2019-03-11T09:03:31.915Z,-4.14
2019-03-11T09:04:41.830Z,-4.14
2019-03-11T09:05:51.742Z,-4.2
2019-03-11T09:07:01.709Z,-4.27
2019-03-11T09:08:11.622Z,-4.37
2019-03-11T09:09:21.542Z,-4.35
2019-03-11T09:10:32.003Z,-4.23
2019-03-11T09:11:41.917Z,-4.12
2019-03-11T09:12:51.992Z,-4.06
2019-03-11T09:14:01.910Z,-4.02
2019-03-11T09:15:11.579Z,-3.77
2019-03-11T09:16:21.507Z,-3.66
2019-03-11T09:17:31.420Z,-3.58
2019-03-11T09:18:41.350Z,-3.43
2019-03-11T09:19:51.264Z,-3.46
2019-03-11T09:21:01.176Z,-3.44
2019-03-11T09:22:12.599Z,-3.48
2019-03-11T09:23:22.519Z,-3.44
2019-03-11T09:24:32.540Z,-3.56
2019-03-11T09:25:42.480Z,-3.44
2019-03-11T09:26:52.393Z,-3.44
2019-03-11T09:28:02.315Z,-3.37
2019-03-11T09:29:12.248Z,-3.4
2019-03-11T09:30:22.214Z,-3.43
2019-03-11T09:31:32.133Z,-3.43
2019-03-11T09:32:42.051Z,-3.51
2019-03-11T09:33:51.979Z,-3.5
2019-03-11T09:35:01.902Z,-3.48
2019-03-11T09:36:11.817Z,-3.47
2019-03-11T09:37:21.729Z,-3.44
2019-03-11T09:38:31.406Z,-3.58
2019-03-11T09:39:41.322Z,-3.53
2019-03-11T09:40:51.869Z,-3.43
2019-03-11T09:42:01.818Z,-3.38
2019-03-11T09:43:11.745Z,-3.4
2019-03-11T09:44:21.654Z,-3.32
2019-03-11T09:45:31.575Z,-3.33
2019-03-11T09:46:41.499Z,-3.23
2019-03-11T09:47:51.526Z,-3.08
2019-03-11T09:49:02.337Z,-2.94
2019-03-11T09:50:12.252Z,-2.91
2019-03-11T09:51:22.182Z,-2.73
2019-03-11T09:52:32.106Z,-2.61
2019-03-11T09:53:42.126Z,-2.39
2019-03-11T09:54:52.041Z,-2.23
2019-03-11T09:56:02.609Z,-1.99
2019-03-11T09:57:14.960Z,-1.89
2019-03-11T09:58:24.880Z,-1.69
2019-03-11T09:59:34.826Z,-1.54
2019-03-11T10:00:44.755Z,-1.39
2019-03-11T10:01:54.674Z,-1.29
2019-03-11T10:03:04.601Z,-1.27
2019-03-11T10:04:14.526Z,-1.25
2019-03-11T10:05:24.597Z,-1.39
2019-03-11T10:06:34.590Z,-1.42
2019-03-11T10:07:44.695Z,-1.18
2019-03-11T10:08:54.776Z,-1.19
2019-03-11T10:10:04.707Z,-1.04
2019-03-11T10:11:14.456Z,-1.17
2019-03-11T10:12:24.374Z,-1.24
2019-03-11T10:13:34.295Z,-1.33
2019-03-11T10:14:44.218Z,-1.3
2019-03-11T10:15:54.147Z,-1.38
2019-03-11T10:17:04.173Z,-1.48
2019-03-11T10:18:14.091Z,-1.38
2019-03-11T10:19:24.014Z,-1.38
2019-03-11T10:20:33.933Z,-1.21
2019-03-11T10:21:43.856Z,-1.18
2019-03-11T10:22:53.819Z,-1.14
2019-03-11T10:24:04.260Z,-1.04
2019-03-11T10:25:14.195Z,-1.01
2019-03-11T10:26:24.121Z,-0.91
2019-03-11T10:27:34.038Z,-0.81
2019-03-11T10:28:43.955Z,-0.56
2019-03-11T10:29:53.884Z,-0.44
2019-03-11T10:31:03.804Z,-0.07
2019-03-11T10:32:13.473Z,-0.06
2019-03-11T10:33:23.420Z,0.26
2019-03-11T10:34:33.441Z,0.47
2019-03-11T10:35:43.361Z,0.66
2019-03-11T10:36:53.281Z,0.86
2019-03-11T10:38:03.236Z,1.02
2019-03-11T10:39:13.162Z,1.21
2019-03-11T10:40:23.186Z,1.32
2019-03-11T10:41:33.140Z,1.53
2019-03-11T10:42:43.072Z,1.74
2019-03-11T10:43:52.992Z,1.78
2019-03-11T10:45:02.934Z,2.08
2019-03-11T10:46:13.005Z,2.12
2019-03-11T10:47:22.940Z,2.26
2019-03-11T10:48:41.840Z,2.51
2019-03-11T10:49:51.791Z,2.55
2019-03-11T10:51:02.046Z,2.76
2019-03-11T10:52:12.392Z,2.82
2019-03-11T10:53:22.339Z,2.95
2019-03-11T10:54:32.298Z,3.06
2019-03-11T10:55:42.222Z,3.08
2019-03-11T10:56:52.163Z,3.27
2019-03-11T10:58:02.244Z,3.43
2019-03-11T10:59:12.168Z,3.58
2019-03-11T11:00:22.093Z,3.74
2019-03-11T11:01:32.026Z,3.78
2019-03-11T11:02:41.949Z,3.94
2019-03-11T11:03:51.875Z,4.13
2019-03-11T11:05:01.803Z,4.24
2019-03-11T11:06:11.756Z,4.49
2019-03-11T11:07:22.599Z,4.53
2019-03-11T11:08:32.524Z,4.5
2019-03-11T11:09:42.444Z,4.53
2019-03-11T11:10:52.368Z,4.66
2019-03-11T11:12:02.295Z,4.75
2019-03-11T11:13:12.222Z,4.94
2019-03-11T11:14:22.155Z,4.98
2019-03-11T11:15:32.231Z,5.02
2019-03-11T11:16:42.167Z,5.1
2019-03-11T11:17:54.088Z,5.13
2019-03-11T11:19:04.009Z,5.18
2019-03-11T11:20:13.937Z,5.15
2019-03-11T11:21:23.863Z,5.25
2019-03-11T11:22:33.795Z,5.23
2019-03-11T11:23:43.717Z,5.34
2019-03-11T11:24:53.668Z,5.43
2019-03-11T11:26:03.590Z,5.47
2019-03-11T11:27:13.518Z,5.56
2019-03-11T11:28:23.441Z,5.65
2019-03-11T11:29:33.367Z,5.65
2019-03-11T11:30:43.294Z,5.76
2019-03-11T11:31:53.234Z,5.8
2019-03-11T11:33:03.159Z,5.88
2019-03-11T11:34:13.088Z,6.01
2019-03-11T11:35:23.018Z,5.95
2019-03-11T11:36:32.954Z,6.09
2019-03-11T11:37:42.876Z,6.13
2019-03-11T11:38:52.914Z,6.16
2019-03-11T11:40:02.849Z,6.26
2019-03-11T11:41:12.803Z,6.46
2019-03-11T11:42:24.254Z,6.57
2019-03-11T11:43:34.183Z,6.64
2019-03-11T11:44:44.108Z,6.62
2019-03-11T11:45:54.039Z,6.34
2019-03-11T11:47:03.963Z,6.38
2019-03-11T11:48:13.891Z,6.53
2019-03-11T11:49:23.814Z,6.5
2019-03-11T11:50:33.750Z,6.43
2019-03-11T11:51:43.680Z,6.41
2019-03-11T11:52:53.610Z,6.35
2019-03-11T11:54:03.564Z,6.31
2019-03-11T11:55:13.505Z,6.39
2019-03-11T11:56:23.236Z,6.26
2019-03-11T11:57:33.161Z,6.01
2019-03-11T11:58:45.564Z,5.81
2019-03-11T11:59:59.181Z,5.8
2019-03-11T12:01:09.106Z,5.87
2019-03-11T12:02:19.159Z,5.87
2019-03-11T12:03:29.085Z,5.79
2019-03-11T12:04:39.014Z,5.58
2019-03-11T12:05:48.946Z,5.33
2019-03-11T12:06:58.881Z,5.31
2019-03-11T12:08:09.000Z,5.33
2019-03-11T12:09:18.943Z,5.22
2019-03-11T12:10:28.876Z,5.34
2019-03-11T12:11:38.800Z,5.34
2019-03-11T12:12:48.724Z,5.36
2019-03-11T12:13:58.698Z,5.26
2019-03-11T12:15:08.652Z,5.15
2019-03-11T12:16:18.584Z,5.16
2019-03-11T12:17:28.514Z,5.01
2019-03-11T12:18:38.447Z,4.97
2019-03-11T12:19:48.478Z,4.97
2019-03-11T12:20:58.409Z,4.98
2019-03-11T12:22:08.331Z,4.6
2019-03-11T12:23:18.261Z,4.43
2019-03-11T12:24:28.194Z,4.36
2019-03-11T12:25:38.182Z,4.28
2019-03-11T12:26:48.742Z,4.22
2019-03-11T12:28:00.857Z,4.3
2019-03-11T12:29:10.800Z,4.09
2019-03-11T12:30:20.725Z,3.94
2019-03-11T12:31:30.857Z,3.56
2019-03-11T12:32:40.793Z,3.76
2019-03-11T12:33:50.725Z,3.76
2019-03-11T12:35:00.656Z,3.59
2019-03-11T12:36:10.598Z,3.22
2019-03-11T12:37:20.579Z,3.08
2019-03-11T12:38:31.416Z,3.18
2019-03-11T12:39:41.351Z,3.05
2019-03-11T12:40:51.277Z,3.15
2019-03-11T12:42:01.201Z,3
2019-03-11T12:43:11.181Z,3.26
2019-03-11T12:44:21.106Z,3.22
2019-03-11T12:45:31.045Z,3.06
2019-03-11T12:46:40.975Z,3.15
2019-03-11T12:47:50.663Z,3.19
2019-03-11T12:49:00.449Z,2.98
2019-03-11T12:50:10.383Z,2.88
2019-03-11T12:51:22.465Z,2.76
2019-03-11T12:52:32.396Z,2.93
2019-03-11T12:53:42.323Z,3.09
2019-03-11T12:54:52.356Z,3.05
2019-03-11T12:56:02.277Z,3
2019-03-11T12:57:12.222Z,3
2019-03-11T12:58:22.157Z,3
2019-03-11T12:59:32.092Z,2.88
2019-03-11T13:00:48.335Z,2.83
2019-03-11T13:01:58.264Z,2.87
2019-03-11T13:03:08.195Z,2.75
2019-03-11T13:04:18.122Z,2.76
2019-03-11T13:05:28.046Z,2.87
2019-03-11T13:06:38.135Z,2.95
2019-03-11T13:07:48.073Z,2.88
2019-03-11T13:08:58.001Z,2.91
2019-03-11T13:10:07.942Z,2.93
2019-03-11T13:11:17.985Z,3.18
2019-03-11T13:12:28.066Z,3.29
2019-03-11T13:13:37.996Z,3.05
2019-03-11T13:14:47.926Z,2.98
2019-03-11T13:15:57.848Z,2.97
2019-03-11T13:17:07.812Z,3.11
2019-03-11T13:18:17.844Z,3.12
2019-03-11T13:19:27.773Z,2.98
2019-03-11T13:20:37.705Z,2.77
2019-03-11T13:21:47.383Z,2.64
2019-03-11T13:22:57.319Z,2.61
2019-03-11T13:24:07.364Z,2.5
2019-03-11T13:25:17.297Z,2.41
2019-03-11T13:26:27.228Z,2.4
2019-03-11T13:27:37.175Z,2.33
2019-03-11T13:28:47.106Z,2.18
2019-03-11T13:29:57.088Z,2.08
2019-03-11T13:31:07.016Z,2.04
2019-03-11T13:32:16.942Z,2.05
2019-03-11T13:33:26.870Z,1.92
2019-03-11T13:34:36.563Z,1.89
2019-03-11T13:35:46.606Z,1.85
2019-03-11T13:36:56.541Z,1.92
2019-03-11T13:38:06.471Z,1.76
2019-03-11T13:39:16.400Z,1.74
2019-03-11T13:40:26.326Z,1.71
2019-03-11T13:41:36.250Z,1.75
2019-03-11T13:42:46.175Z,1.84
2019-03-11T13:43:56.101Z,1.76
2019-03-11T13:45:06.029Z,1.57
2019-03-11T13:46:15.955Z,1.6
2019-03-11T13:47:25.930Z,1.61
2019-03-11T13:48:35.904Z,1.58
2019-03-11T13:49:45.842Z,1.53
2019-03-11T13:50:55.521Z,1.56
2019-03-11T13:52:05.447Z,1.5
2019-03-11T13:53:15.162Z,1.5
2019-03-11T13:54:25.081Z,1.71
2019-03-11T13:55:35.003Z,1.74
2019-03-11T13:56:44.933Z,2.07
2019-03-11T13:57:54.854Z,2
2019-03-11T13:59:04.898Z,2
2019-03-11T14:00:14.823Z,2.07
2019-03-11T14:01:26.273Z,2.03
2019-03-11T14:02:36.200Z,2.61
2019-03-11T14:03:46.152Z,2.77
2019-03-11T14:04:56.125Z,2.8
2019-03-11T14:06:06.073Z,3.01
2019-03-11T14:07:15.991Z,2.93
2019-03-11T14:08:25.918Z,2.77
2019-03-11T14:09:35.846Z,2.58
2019-03-11T14:10:45.866Z,2.3
2019-03-11T14:11:55.785Z,2.21
2019-03-11T14:13:05.723Z,2.21
2019-03-11T14:14:15.665Z,2.08
2019-03-11T14:15:25.596Z,2.07
2019-03-11T14:16:35.575Z,2.1
2019-03-11T14:17:45.520Z,2.1
2019-03-11T14:18:55.439Z,1.98
2019-03-11T14:20:05.367Z,1.93
2019-03-11T14:21:21.914Z,1.85
2019-03-11T14:22:35.106Z,1.89
2019-03-11T14:23:45.048Z,1.92
2019-03-11T14:24:55.021Z,1.97
2019-03-11T14:26:05.258Z,1.97
2019-03-11T14:27:15.178Z,1.98
2019-03-11T14:28:25.147Z,1.84
2019-03-11T14:29:35.076Z,1.85
2019-03-11T14:30:44.997Z,1.97
2019-03-11T14:31:54.922Z,1.95
2019-03-11T14:33:04.886Z,1.97
2019-03-11T14:34:14.962Z,2.05
2019-03-11T14:35:24.893Z,2.18
2019-03-11T14:36:34.822Z,2.36
2019-03-11T14:37:44.510Z,2.36
2019-03-11T14:38:54.430Z,2.39
2019-03-11T14:40:04.251Z,2.4
2019-03-11T14:41:14.173Z,2.37
2019-03-11T14:42:24.095Z,2.39
2019-03-11T14:43:34.110Z,2.23
2019-03-11T14:44:44.040Z,2.4
2019-03-11T14:45:54.071Z,2.39
2019-03-11T14:47:04.012Z,2.37
2019-03-11T14:48:13.957Z,2.37
2019-03-11T14:49:23.882Z,2.61
2019-03-11T14:50:33.805Z,3.15
2019-03-11T14:51:43.849Z,3.13
2019-03-11T14:52:53.780Z,3.43
2019-03-11T14:54:03.698Z,3.61
2019-03-11T14:55:13.634Z,3.63
2019-03-11T14:56:23.631Z,4
2019-03-11T14:57:33.663Z,4.12
2019-03-11T14:58:43.587Z,4.16
2019-03-11T14:59:53.515Z,4.04
2019-03-11T15:01:03.440Z,3.92
2019-03-11T15:02:13.111Z,4.02
2019-03-11T15:03:23.097Z,4.4
2019-03-11T15:04:33.042Z,4.83
2019-03-11T15:05:43.026Z,5.2
2019-03-11T15:06:52.967Z,5.31
2019-03-11T15:08:02.898Z,5.36
2019-03-11T15:09:12.926Z,5.19
2019-03-11T15:10:22.860Z,5.43
2019-03-11T15:11:32.792Z,5.49
2019-03-11T15:12:42.816Z,5.64
2019-03-11T15:13:52.760Z,5.49
2019-03-11T15:15:02.842Z,5.64